Monday, March 30, 2015
04:25 UTC
  |  Log In   |  Register Free
Airport Search:

Tucson International Airport
(KTUS)

FAA data valid effective March 05, 2015 - April 30, 2015 (unless otherwise noted).

 
 
 
 
 
 
 
 
 
 
 
 
 
 

Current Aviation Weather for Tucson International Airport (KTUS)

The most recent METAR observation for KTUS was updated at: 1414
METAR Summary (Translated METAR)
KTUS
251353Z 17008KT 10SM CLR 12/M03 A3004 RMK AO2 SLP143 T01171028
KDMA
251358Z AUTO 17007KT 10SM CLR 11/M02 A3002 RMK AO2 SLP138 T01121020 $
(4.2 nm NE from KTUS)
KRYN
250245Z 21008KT 10SM 21/M03 A2995
(12 nm NW from KTUS)
TAF Summary (Translated TAF)
KTUS
251120Z 2512/2612 15006KT P6SM SCT250 FM252000 31008G15KT P6SM SKC FM260200 32007KT P6SM SKC FM260700 15005KT P6SM SKC
KDMA
(4.2 nm NE from KTUS)
2513/2619 15006KT 9999 SKC QNH2997INS BECMG 2517/2518 31009KT 9999 SKC QNH3000INS BECMG 2605/2606 11009KT 9999 SKC QNH3001INS BECMG 2614/2615 12012G18KT 9999 SKC QNH3010INS TEMPO 2615/2619 12020G30KT 520009 TX26/2521Z TN09/2612Z
  Airport Weather Conditions for KTUS

 Current Weather at TUS
77° F
Fair
West winds at 4.6 mph
TUS NOAA Radar

Pressure: 30.07 in
Humidity: 14%
Wind: West at 4.6 MPH (4 KT)
Dew Point: 25.0°F
Visibility: 10.00 mi


Airport Weather Forecast for KTUS

Translated METAR and TAF for KTUS
Translated METAR for KTUS (0425 UTC 30 March 2015)
found at http://aviationweather.gov/adds/metars/
 
METAR text: KTUS 300353Z 27004KT 10SM CLR 25/M04 A3007 RMK AO2 SLP142 T02501039
Conditions at: KTUS (TUCSON , AZ, US) observed 0353 UTC 30 March 2015
Temperature: 25.0°C (77°F)
Dewpoint: -3.9°C (25°F) [RH = 14%]
Pressure (altimeter): 30.07 inches Hg (1018.4 mb)
[Sea-level pressure: 1014.2 mb]
Winds: from the W (270 degrees) at 5 MPH (4 knots; 2.1 m/s)
Visibility: 10 or more miles (16+ km)
Ceiling: at least 12,000 feet AGL
Clouds: sky clear below 12,000 feet AGL
Weather: no significant weather observed at this time
Translated TAF for KTUS
Forecast for: KTUS (TUCSON , AZ, US)
TAF Text: KTUS 292340Z 3000/3024 27010G18KT P6SM BKN250
Forecast period: 0000 to 0400 UTC 30 March 2015
Forecast type: FROM: standard forecast or significant change
Winds: from the W (270 degrees) at 12 MPH (10 knots; 5.2 m/s)
gusting to 21 MPH (18 knots; 9.4 m/s)
Visibility: 6 or more miles (10+ km)
Ceiling: 25000 feet AGL
Clouds: broken clouds at 25000 feet AGL
Weather: no significant weather forecast for this period
TAF Text: FM300400 22005KT P6SM BKN200
Forecast period: 0400 to 0800 UTC 30 March 2015
Forecast type: FROM: standard forecast or significant change
Winds: from the SW (220 degrees) at 6 MPH (5 knots; 2.6 m/s)
Visibility: 6 or more miles (10+ km)
Ceiling: 20000 feet AGL
Clouds: broken clouds at 20000 feet AGL
Weather: no significant weather forecast for this period
TAF Text: FM300800 14007KT P6SM FEW150 OVC200
Forecast period: 0800 to 2000 UTC 30 March 2015
Forecast type: FROM: standard forecast or significant change
Winds: from the SE (140 degrees) at 8 MPH (7 knots; 3.6 m/s)
Visibility: 6 or more miles (10+ km)
Ceiling: 20000 feet AGL
Clouds: few clouds at 15000 feet AGL
overcast cloud deck at 20000 feet AGL
Weather: no significant weather forecast for this period
TAF Text: FM302000 30010KT P6SM SCT100 BKN150
Forecast period: 2000 UTC 30 March 2015 to 0000 UTC 31 March 2015
Forecast type: FROM: standard forecast or significant change
Winds: from the WNW (300 degrees) at 12 MPH (10 knots; 5.2 m/s)
Visibility: 6 or more miles (10+ km)
Ceiling: 15000 feet AGL
Clouds: scattered clouds at 10000 feet AGL
broken clouds at 15000 feet AGL
Weather: no significant weather forecast for this period

Find All Airport Services Find A Hotel Find A Rental Car Find A Golf Course Find A Restaurant $100 Hamburger



FBO's on the Field
FBO Company Facility Photos Services Transportation Aviation Fuel Prices: Prices include tax
Catering Weather Repair Courtesy Rental Type 100LL JetA JetA+ MOGAS 8087
 
Bombardier Aerospace

Bombardier Aerospace logo
This FBO has not yet been rated
FS:
Last Updated: Mar-09
Login to update fuel prices
SS:
Contact Bombardier AerospaceMore FBO Information
 
Atlantic Aviation - TUS

Currently rated 4.6 by 2 people
FS:Independent
Last Updated: Mar-27
Login to update fuel prices
SS:
Contact Atlantic Aviation - TUSMore FBO Information
 
Million Air Tucson

Currently rated 2.7 by 4 people
FS:Independent
Last Updated: Feb-26
Login to update fuel prices
SS:
Contact Million Air TucsonMore FBO Information
 
Premier Aviation (Million Air)

This FBO has not yet been rated
FS:Independent
Last Updated: Feb-26
Login to update fuel prices
SS:
Contact Premier Aviation (Million Air)More FBO Information
 
Tucson Jet Center

Currently rated 4.4 by 3 people
FS:Independent
Last Updated: Mar-23
Login to update fuel prices
SS:
Contact Tucson Jet CenterMore FBO Information
 
Velocity Air Inc.

This FBO has not yet been rated
FS:Ascent
Last Updated: Feb-27
Login to update fuel prices
SS:
Contact Velocity Air Inc.More FBO Information
 
Add another FBO Facility Photos Catering Weather Repair Courtesy Rental Type 100LL JetA JetA+ MOGAS 8087
Services Transportation Aviation Fuel Prices: Prices include tax


model-print
model-print
model-print
model-print